Time;durP1;ratioP1;P1;durP2;ratioP2;P2;SDS_P1;SDS_P2;PMS_P1;PMS_P2;Temp;Humidity;BMP_temperature;BMP_pressure;BME280_temperature;BME280_humidity;BME280_pressure;Samples;Min_cycle;Max_cycle;Signal;HPM_P1;HPM_P2
2023/03/02 00:01:27;;;;;;;;;;;;;;;-142.75;100.00;79376.34;4971856;28;19922;-66
2023/03/02 00:03:53;;;;;;;;;;;;;;;-142.75;100.00;79374.38;4971313;28;20399;-64
2023/03/02 00:06:18;;;;;;;;;;;;;;;-142.75;100.00;79354.69;4972091;28;19960;-66
2023/03/02 00:08:45;;;;;;;;;;;;;;;-142.75;100.00;79354.69;4970646;28;19920;-66
2023/03/02 00:11:10;;;;;;;;;;;;;;;-142.75;100.00;79358.63;4971544;28;20379;-67
2023/03/02 00:13:36;;;;;;;;;;;;;;;-142.75;100.00;79346.81;4971566;28;19922;-67
2023/03/02 00:16:02;;;;;;;;;;;;;;;-142.75;100.00;79346.81;4971912;28;19926;-68
2023/03/02 00:18:27;;;;;;;;;;;;;;;-142.75;100.00;79329.06;4972373;28;19920;-66
2023/03/02 00:20:52;;;;;;;;;;;;;;;-142.75;100.00;79319.22;4972246;28;20523;-65
2023/03/02 00:23:18;;;;;;;;;;;;;;;-142.75;100.00;79331.03;4972368;28;19914;-67
2023/03/02 00:25:43;;;;;;;;;;;;;;;-142.75;100.00;79327.09;4972480;28;19914;-67
2023/03/02 00:28:08;;;;;;;;;;;;;;;-142.75;100.00;79315.28;4972352;28;19920;-66
2023/03/02 00:30:33;;;;;;;;;;;;;;;-142.75;100.00;79323.16;4971709;28;20387;-66
2023/03/02 00:32:58;;;;;;;;;;;;;;;-142.75;100.00;79315.28;4970705;28;19956;-67
2023/03/02 00:35:25;;;;;;;;;;;;;;;-142.75;100.00;79307.41;4971862;28;20013;-67
2023/03/02 00:37:51;;;;;;;;;;;;;;;-142.75;100.00;79321.19;4971898;28;19921;-66
2023/03/02 00:40:16;;;;;;;;;;;;;;;-142.75;100.00;79301.50;4972063;28;19914;-66
2023/03/02 00:42:42;;;;;;;;;;;;;;;-142.75;100.00;79307.41;4972135;28;20322;-65
2023/03/02 00:45:07;;;;;;;;;;;;;;;-142.75;100.00;79301.50;4971690;28;20327;-66
2023/03/02 00:47:34;;;;;;;;;;;;;;;-142.75;100.00;79299.53;4971630;28;19918;-66
2023/03/02 00:49:59;;;;;;;;;;;;;;;-142.75;100.00;79293.63;4971180;28;19914;-68
2023/03/02 00:52:24;;;;;;;;;;;;;;;-142.75;100.00;79291.66;4971897;28;19914;-66
2023/03/02 00:54:49;;;;;;;;;;;;;;;-142.75;100.00;79283.78;4971632;28;19921;-68
2023/03/02 00:57:15;;;;;;;;;;;;;;;-142.75;100.00;79287.72;4971701;28;19918;-66
2023/03/02 00:59:40;;;;;;;;;;;;;;;-142.75;100.00;79279.84;4971763;28;19922;-66
2023/03/02 01:02:05;;;;;;;;;;;;;;;-142.75;100.00;79301.50;4971218;28;19994;-67
2023/03/02 01:04:39;;;;;;;;;;;;;;;-142.75;100.00;79283.78;4971407;28;19941;-66
2023/03/02 01:07:06;;;;;;;;;;;;;;;-142.75;100.00;79297.56;4970323;28;19972;-68
2023/03/02 01:09:31;;;;;;;;;;;;;;;-142.75;100.00;79303.47;4971075;28;19922;-66
2023/03/02 01:11:56;;;;;;;;;;;;;;;-142.75;100.00;79317.25;4970984;28;20299;-66
2023/03/02 01:14:22;;;;;;;;;;;;;;;-142.75;100.00;79315.28;4970429;28;19918;-67
2023/03/02 01:16:48;;;;;;;;;;;;;;;-142.75;100.00;79327.09;4972627;28;19926;-66
2023/03/02 01:19:13;;;;;;;;;;;;;;;-142.75;100.00;79331.03;4970902;28;19942;-67
2023/03/02 01:21:39;;;;;;;;;;;;;;;-142.75;100.00;79335.00;4970976;28;20296;-67
2023/03/02 01:24:04;;;;;;;;;;;;;;;-142.75;100.00;79331.03;4971318;28;19968;-66
2023/03/02 01:26:29;;;;;;;;;;;;;;;-142.75;100.00;79342.88;4970833;28;19914;-66
2023/03/02 01:28:55;;;;;;;;;;;;;;;-142.75;100.00;79333.00;4970613;28;19914;-65
2023/03/02 01:31:21;;;;;;;;;;;;;;;-142.75;100.00;79338.94;4970102;28;19914;-66
2023/03/02 01:33:46;;;;;;;;;;;;;;;-142.75;100.00;79340.91;4953053;28;19925;-66
2023/03/02 01:36:11;;;;;;;;;;;;;;;-142.75;100.00;79346.81;4970821;28;19964;-66
2023/03/02 01:38:36;;;;;;;;;;;;;;;-142.75;100.00;79336.94;4970274;28;19956;-66
2023/03/02 01:41:01;;;;;;;;;;;;;;;-142.75;100.00;79331.03;4971339;28;20048;-66
2023/03/02 01:43:28;;;;;;;;;;;;;;;-142.75;100.00;79346.81;4956969;28;19961;-66
2023/03/02 01:45:53;;;;;;;;;;;;;;;-142.75;100.00;79340.91;4989527;28;19929;-66
2023/03/02 01:48:38;;;;;;;;;;;;;;;-142.75;100.00;79338.94;4974835;28;19914;-67
2023/03/02 01:51:05;;;;;;;;;;;;;;;-142.75;100.00;79323.16;4967357;28;19914;-66
2023/03/02 01:53:32;;;;;;;;;;;;;;;-142.75;100.00;79321.19;4974950;28;20405;-68
2023/03/02 01:55:58;;;;;;;;;;;;;;;-142.75;100.00;79323.16;4974766;28;20008;-66
2023/03/02 01:58:24;;;;;;;;;;;;;;;-142.75;100.00;79313.31;4974320;28;19914;-67
2023/03/02 02:00:51;;;;;;;;;;;;;;;-142.75;100.00;79315.28;4974572;28;19920;-66
2023/03/02 02:03:19;;;;;;;;;;;;;;;-142.75;100.00;79327.09;4975034;28;19953;-67
2023/03/02 02:05:47;;;;;;;;;;;;;;;-142.75;100.00;79335.00;4974517;28;19937;-65
2023/03/02 02:08:12;;;;;;;;;;;;;;;-142.75;100.00;79327.09;4974299;28;20004;-66
2023/03/02 02:10:38;;;;;;;;;;;;;;;-142.75;100.00;79305.44;4974562;28;20005;-66
2023/03/02 02:13:04;;;;;;;;;;;;;;;-142.75;100.00;79307.41;4973743;28;20557;-66
2023/03/02 02:15:29;;;;;;;;;;;;;;;-142.75;100.00;79295.59;4974524;28;19918;-66
2023/03/02 02:17:55;;;;;;;;;;;;;;;-142.75;100.00;79291.66;4957311;28;19914;-66
2023/03/02 02:20:29;;;;;;;;;;;;;;;-142.75;100.00;79289.69;4974539;28;19921;-67
2023/03/02 02:22:54;;;;;;;;;;;;;;;-142.75;100.00;79285.75;4973096;28;20008;-67
2023/03/02 02:25:38;;;;;;;;;;;;;;;-142.75;100.00;79283.78;4973929;28;20001;-66
2023/03/02 02:28:07;;;;;;;;;;;;;;;-142.75;100.00;79271.94;4973397;28;19914;-65
2023/03/02 02:30:33;;;;;;;;;;;;;;;-142.75;100.00;79273.91;4974215;28;20004;-66
2023/03/02 02:32:58;;;;;;;;;;;;;;;-142.75;100.00;79285.75;4974569;28;20009;-66
2023/03/02 02:35:29;;;;;;;;;;;;;;;-142.75;100.00;79287.72;4974165;28;19920;-66
2023/03/02 02:38:01;;;;;;;;;;;;;;;-142.75;100.00;79268.00;4974230;28;19914;-66
2023/03/02 02:40:35;;;;;;;;;;;;;;;-142.75;100.00;79264.06;4973912;28;19914;-66
2023/03/02 02:43:01;;;;;;;;;;;;;;;-142.75;100.00;79271.94;4973224;28;20395;-66
2023/03/02 02:45:26;;;;;;;;;;;;;;;-142.75;100.00;79291.66;4974118;28;19922;-67
2023/03/02 02:47:53;;;;;;;;;;;;;;;-142.75;100.00;79291.66;4974268;28;19925;-65
2023/03/02 02:50:25;;;;;;;;;;;;;;;-142.75;100.00;79283.78;4973652;28;19976;-66
2023/03/02 02:52:54;;;;;;;;;;;;;;;-142.75;100.00;79287.72;4974189;28;19914;-66
2023/03/02 02:55:21;;;;;;;;;;;;;;;-142.75;100.00;79281.81;4972486;28;19914;-66
2023/03/02 02:57:47;;;;;;;;;;;;;;;-142.75;100.00;79273.91;4973946;28;20411;-66
2023/03/02 03:00:18;;;;;;;;;;;;;;;-142.75;100.00;79275.88;4973608;28;20068;-66
2023/03/02 03:02:44;;;;;;;;;;;;;;;-142.75;100.00;79269.97;4973979;28;19913;-64
2023/03/02 03:05:16;;;;;;;;;;;;;;;-142.75;100.00;79260.13;4973876;28;20392;-66
2023/03/02 03:07:41;;;;;;;;;;;;;;;-142.75;100.00;79264.06;4972768;28;19914;-66
2023/03/02 03:10:14;;;;;;;;;;;;;;;-142.75;100.00;79262.09;4982552;23;19930;-67
2023/03/02 03:12:40;;;;;;;;;;;;;;;-142.75;100.00;79242.41;4952292;28;19919;-66
2023/03/02 03:15:06;;;;;;;;;;;;;;;-142.75;100.00;79232.56;4954237;28;19921;-67
2023/03/02 03:17:31;;;;;;;;;;;;;;;-142.75;100.00;79216.78;4954143;28;20307;-67
2023/03/02 03:20:04;;;;;;;;;;;;;;;-142.75;100.00;79220.75;4953836;28;19918;-67
2023/03/02 03:22:30;;;;;;;;;;;;;;;-142.75;100.00;79234.53;4954116;28;20470;-67
2023/03/02 03:24:55;;;;;;;;;;;;;;;-142.75;100.00;79232.56;4954197;28;19914;-66
2023/03/02 03:27:20;;;;;;;;;;;;;;;-142.75;100.00;79232.56;4965378;28;19921;-67
2023/03/02 03:29:47;;;;;;;;;;;;;;;-142.75;100.00;79240.44;4955777;28;19914;-67
2023/03/02 03:32:12;;;;;;;;;;;;;;;-142.75;100.00;79236.50;4955895;28;19921;-67
2023/03/02 03:34:39;;;;;;;;;;;;;;;-142.75;100.00;79246.34;4973210;28;19914;-67
2023/03/02 03:37:05;;;;;;;;;;;;;;;-142.75;100.00;79242.41;4956307;28;19922;-67
2023/03/02 03:39:30;;;;;;;;;;;;;;;-142.75;100.00;79244.38;4953561;28;19918;-67
2023/03/02 03:41:55;;;;;;;;;;;;;;;-142.75;100.00;79240.44;4953925;28;20439;-67
2023/03/02 03:44:21;;;;;;;;;;;;;;;-142.75;100.00;79240.44;4953660;28;20022;-67
2023/03/02 03:46:46;;;;;;;;;;;;;;;-142.75;100.00;79240.44;4958543;28;19937;-67
2023/03/02 03:49:11;;;;;;;;;;;;;;;-142.75;100.00;79232.56;4955692;28;20280;-67
2023/03/02 03:51:37;;;;;;;;;;;;;;;-142.75;100.00;79244.38;4972686;28;20417;-67
2023/03/02 03:54:03;;;;;;;;;;;;;;;-142.75;100.00;79240.44;4972694;28;19920;-67
2023/03/02 03:56:29;;;;;;;;;;;;;;;-142.75;100.00;79232.56;4955512;28;19993;-67
2023/03/02 03:59:05;;;;;;;;;;;;;;;-142.75;100.00;79254.22;4955324;28;19964;-67
2023/03/02 04:01:33;;;;;;;;;;;;;;;-142.75;100.00;79244.38;4972709;28;19918;-67
2023/03/02 04:03:59;;;;;;;;;;;;;;;-142.75;100.00;79240.44;4963708;28;19914;-67
2023/03/02 04:06:24;;;;;;;;;;;;;;;-142.75;100.00;79246.34;4972674;28;19914;-67
2023/03/02 04:08:49;;;;;;;;;;;;;;;-142.75;100.00;79250.28;4965729;28;19918;-67
2023/03/02 04:11:14;;;;;;;;;;;;;;;-142.75;100.00;79238.47;4951903;28;19920;-67
2023/03/02 04:13:39;;;;;;;;;;;;;;;-142.75;100.00;79244.38;4960866;28;20265;-67
2023/03/02 04:16:05;;;;;;;;;;;;;;;-142.75;100.00;79252.25;4955232;28;20327;-67
2023/03/02 04:18:30;;;;;;;;;;;;;;;-142.75;100.00;79258.16;4972618;28;19918;-67
2023/03/02 04:20:55;;;;;;;;;;;;;;;-142.75;100.00;79254.22;4972243;28;20039;-67
2023/03/02 04:23:20;;;;;;;;;;;;;;;-142.75;100.00;79248.31;4965736;28;19918;-67
2023/03/02 04:25:46;;;;;;;;;;;;;;;-142.75;100.00;79260.13;4955987;28;19948;-67
2023/03/02 04:28:11;;;;;;;;;;;;;;;-142.75;100.00;79256.19;4953182;28;19984;-67
2023/03/02 04:30:36;;;;;;;;;;;;;;;-142.75;100.00;79271.94;4951725;28;20344;-67
2023/03/02 04:33:01;;;;;;;;;;;;;;;-142.75;100.00;79271.94;4953075;28;19968;-67
2023/03/02 04:35:27;;;;;;;;;;;;;;;-142.75;100.00;79279.84;4953102;28;19915;-67
2023/03/02 04:37:52;;;;;;;;;;;;;;;-142.75;100.00;79271.94;4953157;28;19914;-67
2023/03/02 04:40:18;;;;;;;;;;;;;;;-142.75;100.00;79269.97;4963416;28;19914;-67
2023/03/02 04:42:44;;;;;;;;;;;;;;;-142.75;100.00;79273.91;4954382;28;19922;-67
2023/03/02 04:45:09;;;;;;;;;;;;;;;-142.75;100.00;79268.00;4951793;28;19962;-67
2023/03/02 04:47:34;;;;;;;;;;;;;;;-142.75;100.00;79254.22;4952946;28;19921;-67
2023/03/02 04:50:00;;;;;;;;;;;;;;;-142.75;100.00;79268.00;4951203;28;19918;-67
2023/03/02 04:52:25;;;;;;;;;;;;;;;-142.75;100.00;79266.03;4953651;28;19914;-67
2023/03/02 04:54:50;;;;;;;;;;;;;;;-142.75;100.00;79271.94;4951920;28;19921;-67
2023/03/02 04:57:16;;;;;;;;;;;;;;;-142.75;100.00;79271.94;4954633;28;19925;-67
2023/03/02 04:59:41;;;;;;;;;;;;;;;-142.75;100.00;79275.88;4971269;28;19965;-67
2023/03/02 05:02:06;;;;;;;;;;;;;;;-142.75;100.00;79285.75;4964565;28;20296;-67
2023/03/02 05:04:31;;;;;;;;;;;;;;;-142.75;100.00;79273.91;4954312;28;19921;-67
2023/03/02 05:06:57;;;;;;;;;;;;;;;-142.75;100.00;79279.84;4971694;28;19921;-67
2023/03/02 05:09:26;;;;;;;;;;;;;;;-142.75;100.00;79283.78;4950756;28;19914;-67
2023/03/02 05:11:51;;;;;;;;;;;;;;;-142.75;100.00;79281.81;4950683;28;19915;-67
2023/03/02 05:14:16;;;;;;;;;;;;;;;-142.75;100.00;79287.72;4950995;28;19942;-67
2023/03/02 05:16:42;;;;;;;;;;;;;;;-142.75;100.00;79279.84;4955050;28;20017;-67
2023/03/02 05:19:08;;;;;;;;;;;;;;;-142.75;100.00;79289.69;4971662;28;19920;-67
2023/03/02 05:21:33;;;;;;;;;;;;;;;-142.75;100.00;79271.94;4975657;28;19965;-67
2023/03/02 05:23:59;;;;;;;;;;;;;;;-142.75;100.00;79275.88;4975214;28;20352;-67
2023/03/02 05:26:24;;;;;;;;;;;;;;;-142.75;100.00;79273.91;4973270;28;19921;-67
2023/03/02 05:28:49;;;;;;;;;;;;;;;-142.75;100.00;79262.09;4956266;28;19925;-67
2023/03/02 05:31:19;;;;;;;;;;;;;;;-142.75;100.00;79271.94;4956226;28;19911;-67
2023/03/02 05:33:45;;;;;;;;;;;;;;;-142.75;100.00;79275.88;4955230;28;19937;-67
2023/03/02 05:36:10;;;;;;;;;;;;;;;-142.75;100.00;79262.09;4956278;28;20375;-67
2023/03/02 05:38:35;;;;;;;;;;;;;;;-142.75;100.00;79275.88;4957612;28;19970;-66
2023/03/02 05:41:01;;;;;;;;;;;;;;;-142.75;100.00;79271.94;4954546;28;21100;-67
2023/03/02 05:43:26;;;;;;;;;;;;;;;-142.75;100.00;79268.00;4956159;28;20336;-67
2023/03/02 05:45:52;;;;;;;;;;;;;;;-142.75;100.00;79268.00;4973211;28;19914;-67
2023/03/02 05:48:17;;;;;;;;;;;;;;;-142.75;100.00;79271.94;4963086;28;19983;-67
2023/03/02 05:50:42;;;;;;;;;;;;;;;-142.75;100.00;79279.84;4955782;28;19972;-67
2023/03/02 05:53:07;;;;;;;;;;;;;;;-142.75;100.00;79283.78;4956054;28;19919;-67
2023/03/02 05:55:35;;;;;;;;;;;;;;;-142.75;100.00;79283.78;4955917;28;19914;-67
2023/03/02 05:58:21;;;;;;;;;;;;;;;-142.75;100.00;79287.72;4960173;28;19914;-66
2023/03/02 06:00:47;;;;;;;;;;;;;;;-142.75;100.00;79279.84;4954306;28;19917;-67
2023/03/02 06:03:12;;;;;;;;;;;;;;;-142.75;100.00;79287.72;4958658;28;19936;-67
2023/03/02 06:05:37;;;;;;;;;;;;;;;-142.75;100.00;79277.88;4954598;28;19957;-67
2023/03/02 06:08:03;;;;;;;;;;;;;;;-142.75;100.00;79293.63;4955439;28;19957;-67
2023/03/02 06:10:28;;;;;;;;;;;;;;;-142.75;100.00;79279.84;4953803;28;19918;-67
2023/03/02 06:12:54;;;;;;;;;;;;;;;-142.75;100.00;79295.59;4957695;28;19965;-67
2023/03/02 06:15:19;;;;;;;;;;;;;;;-142.75;100.00;79299.53;4957491;28;19952;-67
2023/03/02 06:17:44;;;;;;;;;;;;;;;-142.75;100.00;79303.47;4960053;28;19922;-67
2023/03/02 06:20:10;;;;;;;;;;;;;;;-142.75;100.00;79301.50;4954400;28;19918;-67
2023/03/02 06:22:40;;;;;;;;;;;;;;;-142.75;100.00;79307.41;4955013;28;19921;-67
2023/03/02 06:25:06;;;;;;;;;;;;;;;-142.75;100.00;79297.56;4956454;28;19913;-66
2023/03/02 06:27:31;;;;;;;;;;;;;;;-142.75;100.00;79319.22;4972719;28;20415;-67
2023/03/02 06:29:56;;;;;;;;;;;;;;;-142.75;100.00;79305.44;4969604;28;19922;-66
2023/03/02 06:32:21;;;;;;;;;;;;;;;-142.75;100.00;79313.31;4956188;28;19969;-67
2023/03/02 06:34:47;;;;;;;;;;;;;;;-142.75;100.00;79319.22;4972360;28;19921;-67
2023/03/02 06:37:12;;;;;;;;;;;;;;;-142.75;100.00;79317.25;4972489;28;19926;-67
2023/03/02 06:39:37;;;;;;;;;;;;;;;-142.75;100.00;79315.28;4966899;28;19918;-67
2023/03/02 06:42:02;;;;;;;;;;;;;;;-142.75;100.00;79307.41;4953986;28;20411;-67
2023/03/02 06:44:28;;;;;;;;;;;;;;;-142.75;100.00;79315.28;4954755;28;20439;-67
2023/03/02 06:46:53;;;;;;;;;;;;;;;-142.75;100.00;79319.22;4953714;28;19921;-67
2023/03/02 06:49:18;;;;;;;;;;;;;;;-142.75;100.00;79319.22;4954035;28;19922;-66
2023/03/02 06:51:43;;;;;;;;;;;;;;;-142.75;100.00;79323.16;4952246;28;20573;-67
2023/03/02 06:54:09;;;;;;;;;;;;;;;-142.75;100.00;79311.34;4943231;28;20338;-67
2023/03/02 06:56:34;;;;;;;;;;;;;;;-142.75;100.00;79311.34;4949856;28;20426;-67
2023/03/02 06:58:59;;;;;;;;;;;;;;;-142.75;100.00;79297.56;4972206;28;19914;-67
2023/03/02 07:01:24;;;;;;;;;;;;;;;-142.75;100.00;79291.66;4956534;28;19914;-67
2023/03/02 07:03:50;;;;;;;;;;;;;;;-142.75;100.00;79295.59;4957586;28;20307;-67
2023/03/02 07:06:15;;;;;;;;;;;;;;;-142.75;100.00;79269.97;4955821;28;19914;-67
2023/03/02 07:08:40;;;;;;;;;;;;;;;-142.75;100.00;79268.00;4971522;28;19914;-67
2023/03/02 07:11:07;;;;;;;;;;;;;;;-142.75;100.00;79248.31;4954617;28;20295;-67
2023/03/02 07:13:32;;;;;;;;;;;;;;;-142.75;100.00;79264.06;4952631;28;20407;-67
2023/03/02 07:15:57;;;;;;;;;;;;;;;-142.75;100.00;79236.50;4953290;28;19966;-67
2023/03/02 07:18:23;;;;;;;;;;;;;;;-142.75;100.00;79226.66;4953415;28;20302;-67
2023/03/02 07:20:48;;;;;;;;;;;;;;;-142.75;100.00;79244.38;4953467;28;19915;-67
2023/03/02 07:23:13;;;;;;;;;;;;;;;-142.75;100.00;79201.03;4953471;28;19915;-67
2023/03/02 07:25:38;;;;;;;;;;;;;;;-142.75;100.00;79193.16;4953757;28;20540;-67
2023/03/02 07:28:04;;;;;;;;;;;;;;;-142.75;100.00;79193.16;4952618;28;20020;-67
2023/03/02 07:30:29;;;;;;;;;;;;;;;-142.75;100.00;79173.47;4955573;28;19920;-67
2023/03/02 07:32:54;;;;;;;;;;;;;;;-142.75;100.00;79203.00;4973045;28;19913;-66
2023/03/02 07:35:19;;;;;;;;;;;;;;;-142.75;100.00;79197.09;4954109;28;19918;-66
2023/03/02 07:37:44;;;;;;;;;;;;;;;-142.75;100.00;79201.03;4971428;28;19985;-67
2023/03/02 07:40:11;;;;;;;;;;;;;;;-142.75;100.00;79195.13;4972178;28;19918;-67
2023/03/02 07:42:36;;;;;;;;;;;;;;;-142.75;100.00;79175.44;4971892;28;19921;-67
2023/03/02 07:45:03;;;;;;;;;;;;;;;-142.75;100.00;79181.34;4971903;28;19914;-66
2023/03/02 07:47:28;;;;;;;;;;;;;;;-142.75;100.00;79169.53;4952589;28;20303;-67
2023/03/02 07:49:53;;;;;;;;;;;;;;;-142.75;100.00;79157.72;4953766;28;19915;-67
2023/03/02 07:52:19;;;;;;;;;;;;;;;-142.75;100.00;79116.34;4955543;28;19964;-67
2023/03/02 07:54:44;;;;;;;;;;;;;;;-142.75;100.00;79138.00;4955721;28;20001;-66
2023/03/02 07:57:09;;;;;;;;;;;;;;;-142.75;100.00;79102.56;4972853;28;19928;-67
2023/03/02 07:59:34;;;;;;;;;;;;;;;-142.75;100.00;79104.53;4972703;28;19914;-65
2023/03/02 08:02:00;;;;;;;;;;;;;;;-142.75;100.00;79090.72;4967269;28;20383;-66
2023/03/02 08:04:25;;;;;;;;;;;;;;;-142.75;100.00;79130.13;4954245;28;20439;-66
2023/03/02 08:06:50;;;;;;;;;;;;;;;-142.75;100.00;79098.63;4952183;28;19914;-67
2023/03/02 08:09:16;;;;;;;;;;;;;;;-142.75;100.00;79098.63;4953697;28;19922;-67
2023/03/02 08:11:41;;;;;;;;;;;;;;;-142.75;100.00;79126.19;4957790;28;19922;-64
2023/03/02 08:14:06;;;;;;;;;;;;;;;-142.75;100.00;79082.84;4952363;28;19915;-66
2023/03/02 08:16:32;;;;;;;;;;;;;;;-142.75;100.00;79063.16;4954231;28;20004;-66
2023/03/02 08:18:57;;;;;;;;;;;;;;;-142.75;100.00;79045.44;4954196;28;19926;-66
2023/03/02 08:21:23;;;;;;;;;;;;;;;-142.75;100.00;79055.28;4955176;28;19977;-66
2023/03/02 08:23:49;;;;;;;;;;;;;;;-142.75;100.00;79055.28;4956112;28;19922;-66
2023/03/02 08:26:15;;;;;;;;;;;;;;;-142.75;100.00;79035.59;4957193;28;19922;-66
2023/03/02 08:28:40;;;;;;;;;;;;;;;-142.75;100.00;79011.94;4958202;28;19925;-66
2023/03/02 08:31:06;;;;;;;;;;;;;;;-142.75;100.00;79008.00;4955964;28;20384;-66
2023/03/02 08:33:32;;;;;;;;;;;;;;;-142.75;100.00;79013.91;4958064;28;19978;-66
2023/03/02 08:35:59;;;;;;;;;;;;;;;-142.75;100.00;78980.44;4955432;28;20020;-65
2023/03/02 08:38:24;;;;;;;;;;;;;;;-142.75;100.00;78964.69;4956059;28;20384;-66
2023/03/02 08:40:50;;;;;;;;;;;;;;;-142.75;100.00;78941.03;4954509;28;19925;-66
2023/03/02 08:43:15;;;;;;;;;;;;;;;-142.75;100.00;78933.16;4953426;28;19914;-66
2023/03/02 08:45:41;;;;;;;;;;;;;;;-142.75;100.00;78905.59;4953214;28;20351;-66
2023/03/02 08:48:06;;;;;;;;;;;;;;;-142.75;100.00;78943.00;4951113;28;19914;-66
2023/03/02 08:50:31;;;;;;;;;;;;;;;-142.75;100.00;78970.59;4956295;28;19920;-65
2023/03/02 08:52:56;;;;;;;;;;;;;;;-142.75;100.00;78944.97;4958947;28;20447;-65
2023/03/02 08:55:21;;;;;;;;;;;;;;;-142.75;100.00;78948.91;4954452;28;19939;-65
2023/03/02 08:57:47;;;;;;;;;;;;;;;-142.75;100.00;78905.59;4954145;28;19926;-65
2023/03/02 09:00:15;;;;;;;;;;;;;;;-142.75;100.00;78846.50;4953141;28;19949;-66
2023/03/02 09:02:40;;;;;;;;;;;;;;;-142.75;100.00;78822.88;4953463;28;19918;-66
2023/03/02 09:05:05;;;;;;;;;;;;;;;-142.75;100.00;78911.50;4953741;28;20338;-66
2023/03/02 09:07:30;;;;;;;;;;;;;;;-142.75;100.00;78868.16;4953478;28;19914;-66
2023/03/02 09:09:56;;;;;;;;;;;;;;;-142.75;100.00;78866.19;4952184;28;19937;-65
2023/03/02 09:12:21;;;;;;;;;;;;;;;-142.75;100.00;78883.91;4952512;28;20005;-66
2023/03/02 09:14:46;;;;;;;;;;;;;;;-142.75;100.00;78824.84;4952649;28;20009;-65
2023/03/02 09:17:14;;;;;;;;;;;;;;;-142.75;100.00;78816.94;4953456;28;19918;-66
2023/03/02 09:19:40;;;;;;;;;;;;;;;-142.75;100.00;78779.53;4952212;28;19922;-66
2023/03/02 09:22:06;;;;;;;;;;;;;;;-142.75;100.00;78771.66;4953133;28;19918;-65
2023/03/02 09:24:31;;;;;;;;;;;;;;;-142.75;100.00;78677.13;4952599;28;19921;-66
2023/03/02 09:26:57;;;;;;;;;;;;;;;-142.75;100.00;78683.03;4952793;28;20353;-65
2023/03/02 09:29:22;;;;;;;;;;;;;;;-142.75;100.00;78663.31;4954807;28;19921;-65
2023/03/02 09:31:47;;;;;;;;;;;;;;;-142.75;100.00;78669.25;4952961;28;19918;-65
2023/03/02 09:34:12;;;;;;;;;;;;;;;-142.75;100.00;78681.06;4951498;28;19914;-65
2023/03/02 09:36:38;;;;;;;;;;;;;;;-142.75;100.00;78714.53;4953615;28;19918;-66
2023/03/02 09:39:08;;;;;;;;;;;;;;;-142.75;100.00;78724.38;4953340;28;19915;-65
2023/03/02 09:41:36;;;;;;;;;;;;;;;-142.75;100.00;78746.03;4953116;28;20384;-65
2023/03/02 09:44:01;;;;;;;;;;;;;;;-142.75;100.00;78641.66;4953953;28;19921;-66
2023/03/02 09:46:43;;;;;;;;;;;;;;;-142.75;100.00;78602.28;4953456;28;19922;-66
2023/03/02 09:49:11;;;;;;;;;;;;;;;-142.75;100.00;78531.38;4952367;28;20368;-64
2023/03/02 09:51:42;;;;;;;;;;;;;;;-142.75;100.00;78612.13;4952314;28;19961;-64
2023/03/02 09:54:15;;;;;;;;;;;;;;;-142.75;100.00;78474.25;4952501;28;19914;-65
2023/03/02 09:56:45;;;;;;;;;;;;;;;-142.75;100.00;78505.78;4952637;28;19926;-66
2023/03/02 09:59:31;;;;;;;;;;;;;;;-142.75;100.00;78438.81;4952552;28;19918;-67
2023/03/02 10:02:00;;;;;;;;;;;;;;;-142.75;100.00;78446.69;4949756;28;19989;-65
2023/03/02 10:04:45;;;;;;;;;;;;;;;-142.75;100.00;78556.97;4950824;28;19953;-65
2023/03/02 10:07:10;;;;;;;;;;;;;;;-142.75;100.00;78460.47;4958508;28;19918;-66
2023/03/02 10:09:36;;;;;;;;;;;;;;;-142.75;100.00;78507.75;4959624;28;20418;-65
2023/03/02 10:12:07;;;;;;;;;;;;;;;-142.75;100.00;78531.38;4959292;28;19918;-65
2023/03/02 10:14:35;;;;;;;;;;;;;;;-142.75;100.00;78570.75;4960113;28;19914;-65
2023/03/02 10:17:07;;;;;;;;;;;;;;;-142.75;100.00;78549.09;4958364;28;20061;-65
2023/03/02 10:19:41;;;;;;;;;;;;;;;-142.75;100.00;78529.41;4958460;28;19922;-65
2023/03/02 10:22:09;;;;;;;;;;;;;;;-142.75;100.00;78472.28;4960205;28;19914;-65
2023/03/02 10:24:39;;;;;;;;;;;;;;;-142.75;100.00;78432.91;4957594;28;19929;-65
2023/03/02 10:27:11;;;;;;;;;;;;;;;-142.75;100.00;78468.34;4951968;28;20035;-66
2023/03/02 10:29:43;;;;;;;;;;;;;;;-142.75;100.00;78444.72;4959389;28;20472;-66
2023/03/02 10:32:08;;;;;;;;;;;;;;;-142.75;100.00;78491.97;4956475;28;19930;-66
2023/03/02 10:34:34;;;;;;;;;;;;;;;-142.75;100.00;78472.28;4956542;28;19914;-66
2023/03/02 10:36:59;;;;;;;;;;;;;;;-142.75;100.00;78464.41;4956168;28;20025;-66
2023/03/02 10:39:25;;;;;;;;;;;;;;;-142.75;100.00;78551.06;4955415;28;19957;-66
2023/03/02 10:41:53;;;;;;;;;;;;;;;-142.75;100.00;78480.16;4961105;28;20044;-66
2023/03/02 10:44:21;;;;;;;;;;;;;;;-142.75;100.00;78393.50;4954054;28;19953;-66
2023/03/02 10:46:46;;;;;;;;;;;;;;;-142.75;100.00;78377.75;4959076;28;20449;-66
2023/03/02 10:49:21;;;;;;;;;;;;;;;-142.75;100.00;78427.00;4959482;28;20009;-66
2023/03/02 10:51:53;;;;;;;;;;;;;;;-142.75;100.00;78466.38;4951982;28;19923;-66
2023/03/02 10:54:18;;;;;;;;;;;;;;;-142.75;100.00;78446.69;4954677;28;19969;-66
2023/03/02 10:56:48;;;;;;;;;;;;;;;-142.75;100.00;78436.84;4953382;28;19918;-66
2023/03/02 10:59:28;;;;;;;;;;;;;;;-142.75;100.00;78369.88;4954131;28;19920;-66
2023/03/02 11:01:57;;;;;;;;;;;;;;;-142.75;100.00;78251.72;4953479;28;19918;-67
2023/03/02 11:04:22;;;;;;;;;;;;;;;-142.75;100.00;78196.59;4945723;28;19914;-66
2023/03/02 11:06:47;;;;;;;;;;;;;;;-142.75;100.00;78283.22;4952937;28;19930;-66
2023/03/02 11:09:13;;;;;;;;;;;;;;;-142.75;100.00;78192.66;4954714;28;19977;-66
2023/03/02 11:11:38;;;;;;;;;;;;;;;-142.75;98.95;78159.16;4956420;28;19918;-67
2023/03/02 11:14:13;;;;;;;;;;;;;;;-142.75;99.24;78200.53;4955225;28;19915;-66
2023/03/02 11:16:38;;;;;;;;;;;;;;;-142.75;97.52;78208.41;4953387;28;20017;-67
2023/03/02 11:19:07;;;;;;;;;;;;;;;-142.75;98.19;78176.88;4952255;28;19950;-66
2023/03/02 11:21:51;;;;;;;;;;;;;;;-142.75;95.93;78228.09;4953136;28;19918;-66
2023/03/02 11:24:20;;;;;;;;;;;;;;;-142.75;90.75;78078.44;4960696;28;20390;-66
2023/03/02 11:26:46;;;;;;;;;;;;;;;-142.75;90.95;78058.72;4966309;28;20480;-66
2023/03/02 11:29:32;;;;;;;;;;;;;;;-142.75;89.04;77991.78;4954390;28;20552;-66
2023/03/02 11:32:02;;;;;;;;;;;;;;;-142.75;87.55;78117.81;4954004;28;19914;-67
2023/03/02 11:34:34;;;;;;;;;;;;;;;-142.75;87.70;78027.22;4951643;28;19968;-66
2023/03/02 11:37:13;;;;;;;;;;;;;;;-142.75;85.99;77956.34;4954024;28;20009;-67
2023/03/02 11:39:48;;;;;;;;;;;;;;;-142.75;80.48;77913.03;4953800;28;19922;-67
2023/03/02 11:42:29;;;;;;;;;;;;;;;-142.75;79.00;77909.06;4956274;28;19921;-66
2023/03/02 11:44:54;;;;;;;;;;;;;;;-142.75;80.37;77956.34;4973835;28;19914;-67
2023/03/02 11:47:20;;;;;;;;;;;;;;;-142.75;82.81;77885.44;4973815;28;19925;-67
2023/03/02 11:49:56;;;;;;;;;;;;;;;-142.75;81.99;77905.13;4956289;28;19914;-67
2023/03/02 11:52:26;;;;;;;;;;;;;;;-142.75;79.29;77932.72;4974121;28;20276;-67
2023/03/02 11:54:51;;;;;;;;;;;;;;;-142.75;81.51;78003.59;4974003;28;19965;-66
2023/03/02 11:57:32;;;;;;;;;;;;;;;-142.75;85.85;77995.72;4973755;28;19957;-66
2023/03/02 11:59:58;;;;;;;;;;;;;;;-142.75;87.62;77991.78;4953293;28;19955;-66
2023/03/02 12:02:24;;;;;;;;;;;;;;;-142.75;87.31;77950.44;4953552;28;20001;-67
2023/03/02 12:04:59;;;;;;;;;;;;;;;-142.75;86.85;78027.22;4953724;28;19915;-67
2023/03/02 12:07:26;;;;;;;;;;;;;;;-142.75;85.03;78029.19;4953756;28;19914;-66
2023/03/02 12:09:57;;;;;;;;;;;;;;;-142.75;90.62;78011.47;4951271;28;19918;-66
2023/03/02 12:12:25;;;;;;;;;;;;;;;-142.75;85.22;78037.06;4961885;28;19914;-67
2023/03/02 12:14:51;;;;;;;;;;;;;;;-142.75;84.87;77987.84;4950157;28;19973;-67
2023/03/02 12:17:18;;;;;;;;;;;;;;;-142.75;86.13;77909.06;4953978;28;20000;-66